Time;durP1;ratioP1;P1;durP2;ratioP2;P2;SDS_P1;SDS_P2;PMS_P1;PMS_P2;Temp;Humidity;BMP_temperature;BMP_pressure;BME280_temperature;BME280_humidity;BME280_pressure;Samples;Min_cycle;Max_cycle;Signal;HPM_P1;HPM_P2
2023/06/29 00:00:41;;;;;;;3.30;3.00;;;27.10;39.90;;;;;;5017590;28;20935;-53
2023/06/29 00:03:06;;;;;;;4.70;3.20;;;27.00;40.00;;;;;;5015617;28;20531;-49
2023/06/29 00:05:32;;;;;;;3.37;3.17;;;27.00;40.00;;;;;;5019614;28;20209;-50
2023/06/29 00:07:59;;;;;;;2.93;2.73;;;27.00;39.80;;;;;;5028868;28;20189;-51
2023/06/29 00:10:25;;;;;;;2.90;2.60;;;26.90;39.80;;;;;;5025449;28;20194;-51
2023/06/29 00:12:52;;;;;;;3.90;2.87;;;26.90;40.20;;;;;;5019192;28;20543;-50
2023/06/29 00:15:17;;;;;;;5.70;3.50;;;26.90;40.20;;;;;;5021691;28;20444;-52
2023/06/29 00:17:47;;;;;;;5.03;3.67;;;26.90;40.40;;;;;;5017011;28;20446;-50
2023/06/29 00:20:14;;;;;;;3.43;3.13;;;26.90;40.20;;;;;;5017923;28;20225;-53
2023/06/29 00:22:40;;;;;;;3.70;3.03;;;26.90;40.20;;;;;;5016795;28;20468;-49
2023/06/29 00:25:08;;;;;;;3.57;3.03;;;26.90;40.20;;;;;;5016924;28;20482;-54
2023/06/29 00:27:34;;;;;;;3.23;2.93;;;26.80;40.20;;;;;;5014945;28;21043;-51
2023/06/29 00:30:00;;;;;;;6.87;3.13;;;26.60;40.80;;;;;;5013973;28;20544;-53
2023/06/29 00:32:25;;;;;;;4.50;2.97;;;26.60;40.60;;;;;;5018423;28;20251;-53
2023/06/29 00:34:51;;;;;;;2.90;2.63;;;26.60;40.70;;;;;;5014437;28;20267;-50
2023/06/29 00:37:17;;;;;;;3.37;3.07;;;26.70;40.60;;;;;;5017013;28;20198;-49
2023/06/29 00:39:42;;;;;;;3.17;2.87;;;26.60;40.80;;;;;;5012184;28;20217;-52
2023/06/29 00:42:08;;;;;;;4.13;3.60;;;26.60;40.90;;;;;;5014808;28;20193;-49
2023/06/29 00:44:34;;;;;;;5.17;3.27;;;26.70;40.80;;;;;;5012213;28;20252;-49
2023/06/29 00:47:00;;;;;;;5.00;3.47;;;26.20;41.20;;;;;;5024210;28;20323;-50
2023/06/29 00:49:26;;;;;;;3.33;2.93;;;25.80;42.40;;;;;;5021784;28;20550;-48
2023/06/29 00:51:53;;;;;;;4.80;3.60;;;25.90;42.40;;;;;;5018385;28;20678;-49
2023/06/29 00:54:20;;;;;;;3.93;3.10;;;25.70;42.60;;;;;;5013652;28;20459;-49
2023/06/29 00:56:46;;;;;;;4.20;3.80;;;25.70;42.50;;;;;;5013704;28;20846;-49
2023/06/29 00:59:12;;;;;;;3.53;3.30;;;25.70;42.70;;;;;;5014466;28;21286;-49
2023/06/29 01:01:39;;;;;;;4.07;2.70;;;25.70;42.60;;;;;;5027412;28;20288;-48
2023/06/29 01:04:08;;;;;;;3.77;3.43;;;25.90;42.40;;;;;;5024911;28;20494;-48
2023/06/29 01:06:56;;;;;;;4.20;3.80;;;26.00;42.30;;;;;;5016150;28;20872;-51
2023/06/29 01:09:21;;;;;;;5.63;2.93;;;26.10;41.90;;;;;;5013732;28;20453;-49
2023/06/29 01:11:49;;;;;;;4.50;3.70;;;26.10;41.70;;;;;;5021171;28;20448;-49
2023/06/29 01:14:15;;;;;;;3.80;3.50;;;26.20;41.60;;;;;;5021521;28;20243;-49
2023/06/29 01:16:43;;;;;;;3.40;3.10;;;26.30;41.50;;;;;;5017707;28;20502;-50
2023/06/29 01:19:13;;;;;;;3.93;3.40;;;26.30;41.30;;;;;;5018030;28;20527;-49
2023/06/29 01:21:54;;;;;;;6.00;3.63;;;26.30;41.50;;;;;;5025020;28;20455;-51
2023/06/29 01:24:24;;;;;;;3.13;2.90;;;26.20;41.50;;;;;;5011814;28;20982;-53
2023/06/29 01:26:50;;;;;;;3.13;2.93;;;26.20;41.50;;;;;;5019118;28;20510;-49
2023/06/29 01:29:24;;;;;;;5.70;3.30;;;26.30;41.40;;;;;;5024792;28;20435;-49
2023/06/29 01:31:53;;;;;;;3.87;3.57;;;26.20;41.40;;;;;;5016223;28;20934;-51
2023/06/29 01:34:19;;;;;;;3.87;2.80;;;26.20;41.40;;;;;;5017500;28;20453;-54
2023/06/29 01:36:47;;;;;;;3.17;2.97;;;26.20;41.40;;;;;;5028416;28;20506;-52
2023/06/29 01:39:25;;;;;;;3.17;2.90;;;26.20;41.30;;;;;;5022981;28;21314;-50
2023/06/29 01:41:52;;;;;;;3.20;2.90;;;26.20;41.50;;;;;;5017000;28;20443;-50
2023/06/29 01:44:19;;;;;;;4.53;3.20;;;26.20;41.40;;;;;;5016424;28;20456;-48
2023/06/29 01:46:47;;;;;;;2.87;2.67;;;26.20;41.30;;;;;;5022905;28;20443;-52
2023/06/29 01:49:12;;;;;;;3.60;3.30;;;26.20;41.30;;;;;;5025481;28;20450;-49
2023/06/29 01:51:38;;;;;;;3.23;2.90;;;26.20;41.30;;;;;;5020716;28;20440;-48
2023/06/29 01:54:04;;;;;;;3.37;3.07;;;26.20;41.30;;;;;;5015894;28;20686;-50
2023/06/29 01:56:29;;;;;;;4.63;4.23;;;26.20;41.20;;;;;;5027003;28;20688;-49
2023/06/29 01:58:55;;;;;;;3.50;3.30;;;26.20;41.10;;;;;;5024415;28;20229;-48
2023/06/29 02:01:20;;;;;;;3.30;3.00;;;25.80;41.90;;;;;;5027119;28;20189;-52
2023/06/29 02:03:47;;;;;;;3.90;3.00;;;25.50;42.60;;;;;;5024710;28;20211;-49
2023/06/29 02:06:13;;;;;;;4.90;3.17;;;25.50;42.70;;;;;;5025328;28;20578;-48
2023/06/29 02:08:38;;;;;;;3.80;3.40;;;25.60;42.60;;;;;;5016853;28;20487;-50
2023/06/29 02:11:04;;;;;;;3.67;3.33;;;25.60;42.50;;;;;;5010339;28;20596;-49
2023/06/29 02:13:30;;;;;;;5.63;3.47;;;25.70;42.20;;;;;;5022008;28;20707;-49
2023/06/29 02:15:55;;;;;;;3.17;2.97;;;25.80;42.10;;;;;;5021958;28;20281;-49
2023/06/29 02:18:21;;;;;;;3.40;3.10;;;25.80;42.10;;;;;;5013711;28;20200;-48
2023/06/29 02:20:46;;;;;;;3.87;3.37;;;25.90;42.00;;;;;;5013511;28;20193;-51
2023/06/29 02:23:12;;;;;;;3.40;3.20;;;25.90;42.00;;;;;;5015163;28;22229;-49
2023/06/29 02:25:38;;;;;;;3.80;3.10;;;25.90;41.80;;;;;;5014587;28;20303;-49
2023/06/29 02:28:03;;;;;;;4.03;3.30;;;26.00;41.70;;;;;;5011705;28;20200;-50
2023/06/29 02:30:29;;;;;;;4.23;3.70;;;26.00;41.70;;;;;;5010821;28;20221;-48
2023/06/29 02:32:54;;;;;;;3.07;2.87;;;26.00;41.60;;;;;;5011814;28;20193;-48
2023/06/29 02:35:20;;;;;;;3.80;3.47;;;26.00;41.40;;;;;;5017525;28;20231;-48
2023/06/29 02:37:45;;;;;;;3.33;2.77;;;25.90;41.70;;;;;;5011948;28;20285;-53
2023/06/29 02:40:11;;;;;;;3.47;3.17;;;25.80;42.00;;;;;;5025421;28;20229;-48
2023/06/29 02:42:37;;;;;;;3.60;3.30;;;25.70;42.00;;;;;;5015863;28;20744;-52
2023/06/29 02:45:03;;;;;;;3.80;3.40;;;25.80;41.90;;;;;;5014323;28;20437;-52
2023/06/29 02:47:29;;;;;;;3.40;3.10;;;25.90;41.70;;;;;;5017247;28;20688;-49
2023/06/29 02:49:55;;;;;;;4.20;3.80;;;25.70;42.00;;;;;;5025059;28;20470;-48
2023/06/29 02:52:21;;;;;;;3.57;3.27;;;25.90;41.80;;;;;;5013613;28;20226;-49
2023/06/29 02:54:46;;;;;;;4.27;3.87;;;25.80;41.80;;;;;;5015397;28;20182;-48
2023/06/29 02:57:12;;;;;;;3.67;3.37;;;25.90;41.60;;;;;;5016490;28;20193;-51
2023/06/29 02:59:38;;;;;;;5.70;3.33;;;25.80;41.80;;;;;;4996831;28;20731;-48
2023/06/29 03:02:04;;;;;;;3.77;3.47;;;25.70;41.90;;;;;;5012835;28;20246;-49
2023/06/29 03:04:29;;;;;;;4.43;4.13;;;25.70;41.90;;;;;;5015749;28;20273;-50
2023/06/29 03:06:55;;;;;;;4.10;3.70;;;25.60;42.30;;;;;;5012680;28;20653;-49
2023/06/29 03:09:21;;;;;;;4.03;3.70;;;25.60;42.10;;;;;;5020027;28;20229;-49
2023/06/29 03:11:46;;;;;;;6.63;3.30;;;25.60;42.00;;;;;;5022464;28;20201;-50
2023/06/29 03:14:12;;;;;;;3.23;2.93;;;25.60;42.10;;;;;;5024960;28;20962;-51
2023/06/29 03:16:38;;;;;;;3.87;3.50;;;25.60;42.20;;;;;;5019623;28;20288;-51
2023/06/29 03:19:04;;;;;;;6.03;3.97;;;25.60;42.20;;;;;;5026003;28;20228;-48
2023/06/29 03:21:29;;;;;;;5.87;3.33;;;25.60;42.10;;;;;;5029016;28;20497;-48
2023/06/29 03:23:55;;;;;;;3.90;3.50;;;25.50;42.50;;;;;;5028663;28;20197;-48
2023/06/29 03:26:21;;;;;;;3.97;3.60;;;25.30;42.80;;;;;;5027482;28;20193;-48
2023/06/29 03:28:46;;;;;;;3.63;3.00;;;25.30;42.80;;;;;;5027374;28;20687;-52
2023/06/29 03:31:12;;;;;;;3.43;3.23;;;25.30;42.60;;;;;;5020177;28;20189;-50
2023/06/29 03:33:37;;;;;;;3.73;3.43;;;25.40;42.60;;;;;;5024353;28;20316;-52
2023/06/29 03:36:04;;;;;;;3.30;3.00;;;25.20;42.80;;;;;;5030147;28;20696;-50
2023/06/29 03:38:30;;;;;;;3.40;3.10;;;25.30;42.80;;;;;;5022508;28;20201;-51
2023/06/29 03:40:55;;;;;;;4.00;3.70;;;25.30;42.80;;;;;;5026032;28;20440;-48
2023/06/29 03:43:21;;;;;;;3.30;3.00;;;25.40;42.70;;;;;;5022722;28;20198;-49
2023/06/29 03:45:46;;;;;;;3.23;3.00;;;25.20;42.90;;;;;;5023477;28;20198;-48
2023/06/29 03:48:12;;;;;;;4.33;3.93;;;25.20;43.10;;;;;;5026020;28;20537;-49
2023/06/29 03:50:37;;;;;;;4.50;3.70;;;24.80;43.10;;;;;;5029369;28;20235;-49
2023/06/29 03:53:03;;;;;;;4.37;3.97;;;24.60;44.10;;;;;;5028498;28;20201;-48
2023/06/29 03:55:29;;;;;;;3.60;3.30;;;24.60;44.20;;;;;;5028308;28;20565;-48
2023/06/29 03:57:57;;;;;;;3.93;3.53;;;24.60;44.10;;;;;;5029526;28;20196;-48
2023/06/29 04:00:23;;;;;;;3.80;3.50;;;24.70;44.00;;;;;;5021470;28;20332;-48
2023/06/29 04:02:48;;;;;;;3.80;3.30;;;24.80;43.90;;;;;;5023169;28;20892;-51
2023/06/29 04:05:14;;;;;;;4.43;3.50;;;25.00;43.40;;;;;;5026152;28;20243;-49
2023/06/29 04:07:40;;;;;;;3.70;3.40;;;25.10;43.10;;;;;;5026942;28;20204;-49
2023/06/29 04:10:06;;;;;;;5.10;3.60;;;25.20;42.90;;;;;;5018541;28;20620;-48
2023/06/29 04:12:31;;;;;;;4.10;3.77;;;25.20;42.80;;;;;;5024028;28;20193;-48
2023/06/29 04:14:57;;;;;;;6.03;3.60;;;25.20;42.70;;;;;;5018257;28;20456;-50
2023/06/29 04:17:23;;;;;;;3.57;3.30;;;25.30;42.70;;;;;;5015508;28;20198;-52
2023/06/29 04:19:48;;;;;;;3.87;3.50;;;24.60;44.30;;;;;;5015020;28;20235;-51
2023/06/29 04:22:14;;;;;;;3.40;3.13;;;24.60;44.10;;;;;;5019647;28;20198;-48
2023/06/29 04:24:39;;;;;;;5.07;4.30;;;24.70;44.10;;;;;;5022382;28;20263;-49
2023/06/29 04:27:05;;;;;;;4.33;3.60;;;24.80;43.80;;;;;;5025023;28;20257;-52
2023/06/29 04:29:31;;;;;;;3.40;3.10;;;24.80;43.60;;;;;;5024258;28;20201;-48
2023/06/29 04:31:57;;;;;;;4.23;3.63;;;24.60;44.00;;;;;;5019049;28;20284;-49
2023/06/29 04:34:22;;;;;;;7.73;4.30;;;24.40;44.20;;;;;;5026664;28;20209;-52
2023/06/29 04:36:48;;;;;;;3.93;3.43;;;24.30;44.40;;;;;;5015744;28;20469;-48
2023/06/29 04:39:14;;;;;;;5.00;3.60;;;23.90;45.30;;;;;;5012629;28;20260;-49
2023/06/29 04:41:41;;;;;;;4.90;3.57;;;24.10;45.30;;;;;;4991529;28;20696;-48
2023/06/29 04:44:10;;;;;;;3.47;3.17;;;24.30;44.90;;;;;;5018727;28;20554;-49
2023/06/29 04:46:39;;;;;;;4.00;3.70;;;24.40;44.60;;;;;;5024135;28;20800;-51
2023/06/29 04:49:06;;;;;;;4.00;3.70;;;24.70;44.30;;;;;;5014750;28;20505;-51
2023/06/29 04:51:36;;;;;;;7.87;3.53;;;24.80;44.00;;;;;;5016471;28;20453;-52
2023/06/29 04:54:02;;;;;;;3.80;3.50;;;25.00;43.80;;;;;;5013749;28;20444;-50
2023/06/29 04:56:28;;;;;;;3.80;3.50;;;24.90;43.90;;;;;;5026770;28;20523;-48
2023/06/29 04:58:54;;;;;;;4.43;4.00;;;24.70;44.10;;;;;;5024887;28;20541;-49
2023/06/29 05:01:20;;;;;;;3.90;3.40;;;24.20;44.70;;;;;;5030181;28;20204;-53
2023/06/29 05:03:46;;;;;;;3.10;2.90;;;24.00;45.30;;;;;;5030294;28;20467;-51
2023/06/29 05:06:11;;;;;;;4.07;3.70;;;24.10;45.70;;;;;;5027838;28;20648;-52
2023/06/29 05:08:37;;;;;;;4.93;4.40;;;24.30;45.20;;;;;;5030062;28;20193;-51
2023/06/29 05:11:03;;;;;;;3.93;3.60;;;24.50;44.70;;;;;;5017884;28;20201;-52
2023/06/29 05:13:28;;;;;;;4.17;3.77;;;24.00;45.40;;;;;;5021650;28;20198;-52
2023/06/29 05:15:54;;;;;;;4.40;4.10;;;23.90;45.70;;;;;;5011961;28;20197;-53
2023/06/29 05:18:19;;;;;;;9.07;4.57;;;24.10;45.40;;;;;;5019471;28;20190;-48
2023/06/29 05:20:45;;;;;;;6.57;5.77;;;24.10;45.70;;;;;;5014384;28;20233;-47
2023/06/29 05:23:11;;;;;;;5.17;4.50;;;24.30;45.10;;;;;;5017787;28;20193;-48
2023/06/29 05:25:38;;;;;;;5.90;4.90;;;24.40;44.70;;;;;;5014123;28;20248;-47
2023/06/29 05:28:03;;;;;;;5.20;4.57;;;24.60;44.60;;;;;;5012907;28;20204;-49
2023/06/29 05:30:29;;;;;;;4.90;4.33;;;24.50;44.70;;;;;;5016320;28;20826;-47
2023/06/29 05:32:54;;;;;;;5.40;4.40;;;24.10;45.20;;;;;;5020664;28;20258;-47
2023/06/29 05:35:20;;;;;;;4.37;4.00;;;24.30;45.10;;;;;;5025638;28;20202;-47
2023/06/29 05:37:46;;;;;;;5.30;4.23;;;24.40;45.10;;;;;;5026047;28;20193;-49
2023/06/29 05:40:12;;;;;;;3.80;3.47;;;24.50;44.80;;;;;;5029132;28;20232;-47
2023/06/29 05:42:38;;;;;;;4.50;4.10;;;24.70;44.60;;;;;;5025396;28;20452;-49
2023/06/29 05:45:04;;;;;;;4.47;3.83;;;24.50;44.50;;;;;;5026064;28;21003;-50
2023/06/29 05:47:29;;;;;;;5.60;4.97;;;24.10;45.10;;;;;;5028212;28;20200;-52
2023/06/29 05:49:55;;;;;;;6.10;5.10;;;23.60;46.10;;;;;;5019937;28;20841;-48
2023/06/29 05:52:21;;;;;;;4.67;4.27;;;23.70;46.30;;;;;;5024013;28;20641;-47
2023/06/29 05:54:47;;;;;;;4.70;4.30;;;23.80;46.10;;;;;;5027652;28;20197;-48
2023/06/29 05:57:12;;;;;;;7.10;6.40;;;24.10;45.80;;;;;;5029341;28;20446;-49
2023/06/29 05:59:38;;;;;;;4.10;3.70;;;23.70;46.10;;;;;;5023434;28;20245;-48
2023/06/29 06:02:04;;;;;;;4.67;4.20;;;23.80;46.30;;;;;;5022636;28;20197;-50
2023/06/29 06:04:29;;;;;;;4.30;3.90;;;24.10;45.70;;;;;;5025995;28;20193;-47
2023/06/29 06:06:55;;;;;;;4.30;4.00;;;24.50;45.10;;;;;;5024406;28;20251;-50
2023/06/29 06:09:20;;;;;;;7.00;4.03;;;24.70;44.60;;;;;;5022259;28;20197;-51
2023/06/29 06:11:47;;;;;;;9.30;4.80;;;24.80;44.30;;;;;;5020623;28;20193;-48
2023/06/29 06:14:12;;;;;;;4.70;4.20;;;24.30;44.90;;;;;;5016550;28;20205;-47
2023/06/29 06:16:38;;;;;;;7.70;4.27;;;24.00;45.90;;;;;;5019921;28;20462;-50
2023/06/29 06:19:03;;;;;;;4.50;4.00;;;24.10;45.70;;;;;;5022430;28;20244;-52
2023/06/29 06:21:29;;;;;;;4.23;3.80;;;24.20;45.60;;;;;;5019538;28;22294;-50
2023/06/29 06:23:54;;;;;;;4.83;4.43;;;24.40;45.60;;;;;;5024291;28;20231;-48
2023/06/29 06:26:20;;;;;;;5.80;4.20;;;24.20;45.90;;;;;;5028442;28;20649;-49
2023/06/29 06:28:46;;;;;;;6.20;3.60;;;24.50;45.60;;;;;;5029258;28;20222;-46
2023/06/29 06:31:12;;;;;;;3.80;3.50;;;24.80;45.00;;;;;;5023165;28;20201;-47
2023/06/29 06:33:39;;;;;;;4.63;3.63;;;24.90;44.70;;;;;;5026457;28;20193;-48
2023/06/29 06:36:06;;;;;;;8.70;4.43;;;24.80;44.60;;;;;;5022944;28;20527;-47
2023/06/29 06:38:31;;;;;;;4.73;3.73;;;24.90;44.80;;;;;;5028855;28;21003;-47
2023/06/29 06:40:57;;;;;;;3.50;3.20;;;24.60;44.80;;;;;;5021908;28;20539;-48
2023/06/29 06:43:23;;;;;;;10.63;3.33;;;24.80;44.70;;;;;;5032593;28;20200;-51
2023/06/29 06:45:48;;;;;;;4.63;3.63;;;25.20;44.20;;;;;;5031361;28;20197;-47
2023/06/29 06:48:14;;;;;;;4.77;3.30;;;25.60;43.60;;;;;;5023759;28;20646;-50
2023/06/29 06:50:39;;;;;;;4.00;3.57;;;25.70;43.20;;;;;;5034179;28;20203;-47
2023/06/29 06:53:05;;;;;;;6.43;3.60;;;25.90;42.80;;;;;;5032041;28;20220;-48
2023/06/29 06:55:30;;;;;;;3.87;3.27;;;26.20;42.50;;;;;;5022926;28;20186;-48
2023/06/29 06:57:56;;;;;;;3.80;3.10;;;26.50;42.60;;;;;;5023756;28;20193;-48
2023/06/29 07:00:22;;;;;;;3.70;2.87;;;26.60;42.10;;;;;;5033523;28;20612;-47
2023/06/29 07:02:47;;;;;;;3.40;3.10;;;26.80;41.50;;;;;;5030194;28;20197;-47
2023/06/29 07:05:14;;;;;;;5.30;3.17;;;26.40;41.60;;;;;;5033214;28;20185;-48
2023/06/29 07:07:40;;;;;;;5.90;3.43;;;26.40;42.10;;;;;;5033721;28;20233;-48
2023/06/29 07:10:06;;;;;;;3.10;2.80;;;26.60;41.50;;;;;;5015170;28;20967;-52
2023/06/29 07:12:32;;;;;;;3.37;2.90;;;26.90;40.60;;;;;;5022892;28;20542;-47
2023/06/29 07:14:57;;;;;;;6.07;3.23;;;27.20;40.00;;;;;;5032530;28;20447;-47
2023/06/29 07:17:23;;;;;;;3.30;3.00;;;27.50;39.30;;;;;;5030902;28;20212;-47
2023/06/29 07:19:48;;;;;;;22.17;5.40;;;27.60;39.10;;;;;;5033064;28;20228;-47
2023/06/29 07:22:14;;;;;;;13.40;4.30;;;27.60;39.30;;;;;;5022688;28;20202;-48
2023/06/29 07:24:40;;;;;;;4.60;3.30;;;27.80;38.90;;;;;;5027820;28;20255;-48
2023/06/29 07:27:05;;;;;;;2.90;2.60;;;28.00;38.20;;;;;;5021698;28;20219;-47
2023/06/29 07:29:33;;;;;;;3.93;2.60;;;28.20;38.00;;;;;;5025199;28;20200;-48
2023/06/29 07:31:58;;;;;;;3.27;3.03;;;28.30;38.30;;;;;;5033738;28;20311;-47
2023/06/29 07:34:24;;;;;;;4.73;3.40;;;28.50;37.90;;;;;;5025936;28;20916;-49
2023/06/29 07:36:50;;;;;;;3.17;2.90;;;28.80;37.60;;;;;;5023704;28;20245;-49
2023/06/29 07:39:16;;;;;;;3.70;3.10;;;28.90;37.10;;;;;;5026292;28;20697;-48
2023/06/29 07:41:42;;;;;;;3.53;3.17;;;28.90;37.90;;;;;;5021771;28;20440;-48
2023/06/29 07:44:08;;;;;;;4.70;2.83;;;28.90;37.70;;;;;;5032690;28;20790;-47
2023/06/29 07:46:34;;;;;;;7.07;3.50;;;28.80;36.90;;;;;;5033009;28;20428;-48
2023/06/29 07:49:00;;;;;;;4.33;3.30;;;28.90;36.80;;;;;;5024802;28;20190;-49
2023/06/29 07:51:31;;;;;;;3.63;3.30;;;29.10;36.90;;;;;;5030578;28;20442;-47
2023/06/29 07:53:58;;;;;;;4.93;3.13;;;29.20;36.40;;;;;;5016992;28;20575;-47
2023/06/29 07:56:24;;;;;;;3.37;2.87;;;29.30;36.40;;;;;;5021890;28;20455;-49
2023/06/29 07:58:49;;;;;;;5.20;3.27;;;29.50;36.70;;;;;;5023484;28;20455;-49
2023/06/29 08:01:17;;;;;;;7.03;3.30;;;29.60;36.00;;;;;;5019081;28;20204;-50
2023/06/29 08:03:44;;;;;;;6.20;3.23;;;29.80;35.90;;;;;;5021611;28;20192;-48
2023/06/29 08:06:10;;;;;;;4.87;3.20;;;29.90;35.70;;;;;;5028759;28;20615;-48
2023/06/29 08:08:36;;;;;;;3.63;3.17;;;29.90;35.10;;;;;;5025040;28;20522;-47
2023/06/29 08:11:02;;;;;;;3.57;2.93;;;30.20;35.30;;;;;;5027164;28;20367;-50
2023/06/29 08:13:27;;;;;;;4.67;3.60;;;30.50;34.90;;;;;;5025193;28;20605;-48
2023/06/29 08:15:53;;;;;;;2.93;2.73;;;30.70;34.10;;;;;;5028300;28;20204;-48
2023/06/29 08:18:18;;;;;;;6.33;2.97;;;30.60;33.80;;;;;;5024342;28;20589;-52
2023/06/29 08:20:46;;;;;;;5.03;2.50;;;30.70;33.90;;;;;;5022614;28;20338;-51
2023/06/29 08:23:12;;;;;;;8.03;3.27;;;30.80;33.50;;;;;;5017654;28;20200;-48
2023/06/29 08:25:37;;;;;;;4.50;2.87;;;30.80;33.00;;;;;;5019758;28;20480;-51
2023/06/29 08:28:03;;;;;;;4.00;3.00;;;30.40;32.70;;;;;;5020643;28;21302;-51
2023/06/29 08:30:29;;;;;;;3.40;3.10;;;30.40;33.20;;;;;;5022480;28;20189;-48
2023/06/29 08:32:54;;;;;;;5.70;3.50;;;30.60;33.60;;;;;;5023475;28;20705;-48
2023/06/29 08:35:20;;;;;;;3.40;2.67;;;30.70;33.30;;;;;;5015227;28;20745;-50
2023/06/29 08:37:46;;;;;;;3.13;2.87;;;31.00;32.40;;;;;;5022261;28;20673;-49
2023/06/29 08:40:12;;;;;;;6.97;3.13;;;31.20;32.20;;;;;;5023184;28;20221;-48
2023/06/29 08:42:38;;;;;;;2.50;2.30;;;31.40;32.10;;;;;;5029348;28;20277;-48
2023/06/29 08:45:06;;;;;;;3.93;2.80;;;31.40;31.80;;;;;;5027401;28;20459;-48
2023/06/29 08:47:34;;;;;;;4.67;2.67;;;31.60;31.50;;;;;;5023463;28;20448;-48
2023/06/29 08:50:02;;;;;;;6.33;2.80;;;31.90;31.00;;;;;;5031332;28;20809;-50
2023/06/29 08:52:31;;;;;;;4.07;2.97;;;32.00;30.60;;;;;;5030740;28;20448;-48
2023/06/29 08:54:57;;;;;;;4.20;2.83;;;32.10;31.50;;;;;;5020525;28;20497;-52
2023/06/29 08:57:24;;;;;;;3.33;2.77;;;32.10;31.60;;;;;;5024553;28;20897;-49
2023/06/29 08:59:50;;;;;;;3.53;3.20;;;32.10;31.00;;;;;;5017325;28;20495;-48
2023/06/29 09:02:16;;;;;;;3.80;2.40;;;31.90;30.70;;;;;;5020679;28;20440;-48
2023/06/29 09:04:44;;;;;;;4.07;2.77;;;31.60;30.20;;;;;;5015664;28;20810;-49
2023/06/29 09:07:10;;;;;;;4.10;2.17;;;31.60;29.90;;;;;;5018070;28;21174;-51
2023/06/29 09:09:35;;;;;;;2.20;2.00;;;31.70;29.80;;;;;;5027697;28;20436;-50
2023/06/29 09:12:01;;;;;;;5.17;2.80;;;31.60;29.70;;;;;;5028107;28;20190;-47
2023/06/29 09:14:28;;;;;;;4.20;2.53;;;31.40;29.80;;;;;;5025888;28;20243;-48
2023/06/29 09:17:01;;;;;;;4.40;2.80;;;31.30;29.80;;;;;;5022757;28;20280;-51
2023/06/29 09:19:27;;;;;;;11.87;3.37;;;31.50;29.90;;;;;;5025068;28;20487;-50
2023/06/29 09:21:53;;;;;;;2.40;2.20;;;31.70;29.90;;;;;;5023069;28;20462;-52
2023/06/29 09:24:19;;;;;;;3.07;2.30;;;32.00;29.30;;;;;;5019758;28;20480;-54
2023/06/29 09:26:49;;;;;;;3.73;2.37;;;32.10;29.30;;;;;;5026554;28;20543;-51
2023/06/29 09:29:16;;;;;;;4.77;2.40;;;32.10;29.10;;;;;;5024764;28;20215;-50
2023/06/29 09:31:53;;;;;;;3.60;2.40;;;32.10;28.80;;;;;;5025665;28;20432;-48
2023/06/29 09:34:25;;;;;;;4.73;2.57;;;32.10;28.40;;;;;;5028355;28;20550;-52
2023/06/29 09:36:51;;;;;;;2.83;2.50;;;32.20;28.80;;;;;;5024796;28;20809;-48
2023/06/29 09:39:17;;;;;;;3.20;2.30;;;32.30;28.70;;;;;;5025589;28;20487;-52
2023/06/29 09:41:54;;;;;;;2.70;1.90;;;32.60;28.50;;;;;;5021349;28;20443;-48
2023/06/29 09:44:22;;;;;;;4.77;2.93;;;32.90;28.40;;;;;;5015534;28;20452;-48
2023/06/29 09:46:49;;;;;;;3.60;2.20;;;33.00;28.00;;;;;;5012569;28;20443;-48
2023/06/29 09:49:15;;;;;;;4.50;2.50;;;32.80;27.80;;;;;;5016070;28;20948;-49
2023/06/29 09:51:41;;;;;;;3.67;2.30;;;32.50;28.30;;;;;;5021767;28;20444;-48
2023/06/29 09:54:14;;;;;;;2.90;2.40;;;32.60;28.20;;;;;;5026789;28;20211;-48
2023/06/29 09:56:40;;;;;;;3.17;2.50;;;32.90;28.10;;;;;;5019501;28;20444;-53
2023/06/29 09:59:11;;;;;;;2.10;1.90;;;32.90;28.00;;;;;;5022429;28;20487;-50
2023/06/29 10:01:38;;;;;;;2.50;2.30;;;33.00;27.90;;;;;;5021972;28;20454;-49
2023/06/29 10:04:04;;;;;;;6.27;2.57;;;33.40;27.80;;;;;;5020566;28;20444;-48
2023/06/29 10:06:49;;;;;;;9.83;4.10;;;33.60;27.70;;;;;;5025564;28;20447;-49
2023/06/29 10:09:20;;;;;;;3.40;2.27;;;33.70;27.90;;;;;;5006623;28;20820;-48
2023/06/29 10:11:53;;;;;;;3.33;2.73;;;33.70;27.70;;;;;;5022260;28;20452;-49
2023/06/29 10:14:20;;;;;;;4.93;2.63;;;34.00;27.40;;;;;;5024968;28;20444;-50
2023/06/29 10:16:50;;;;;;;2.90;2.20;;;34.20;26.90;;;;;;5026024;28;20452;-49
2023/06/29 10:19:23;;;;;;;4.13;3.23;;;34.00;26.70;;;;;;5022801;28;20958;-48
2023/06/29 10:21:59;;;;;;;69.60;13.40;;;34.00;27.20;;;;;;5018506;28;20479;-52
2023/06/29 10:24:31;;;;;;;69.43;10.57;;;34.20;27.20;;;;;;5017189;28;20486;-50
2023/06/29 10:26:58;;;;;;;6.40;2.80;;;34.40;27.00;;;;;;5024356;28;20527;-49
2023/06/29 10:29:24;;;;;;;4.90;2.60;;;34.40;26.70;;;;;;5020828;28;20531;-50
2023/06/29 10:31:54;;;;;;;3.03;2.67;;;34.20;26.90;;;;;;5017747;28;20518;-53
2023/06/29 10:34:20;;;;;;;2.70;2.50;;;34.20;27.40;;;;;;5015645;28;20194;-50
2023/06/29 10:36:48;;;;;;;4.13;2.93;;;34.20;26.90;;;;;;5025954;28;20499;-49
2023/06/29 10:39:42;;;;;;;5.10;2.67;;;34.40;27.00;;;;;;5020848;28;20342;-49
2023/06/29 10:42:12;;;;;;;2.87;2.63;;;34.50;26.90;;;;;;5023893;28;20915;-52
2023/06/29 10:44:38;;;;;;;3.60;2.83;;;34.30;27.20;;;;;;5009238;28;20502;-48
2023/06/29 10:47:04;;;;;;;5.63;3.07;;;34.40;27.00;;;;;;5026050;28;20448;-48
2023/06/29 10:49:30;;;;;;;3.17;2.70;;;34.60;27.00;;;;;;5027627;28;20419;-48
2023/06/29 10:52:03;;;;;;;4.00;2.63;;;34.30;27.00;;;;;;5021040;28;20217;-48
2023/06/29 10:54:29;;;;;;;6.20;2.80;;;34.00;27.60;;;;;;5021879;28;20440;-48
2023/06/29 10:57:10;;;;;;;3.87;2.50;;;34.10;27.70;;;;;;5022586;28;20486;-48
2023/06/29 10:59:36;;;;;;;6.03;2.93;;;34.50;27.40;;;;;;5024802;28;20238;-49
2023/06/29 11:02:03;;;;;;;3.20;2.67;;;34.80;26.90;;;;;;5029805;28;20436;-49
2023/06/29 11:04:29;;;;;;;2.70;2.50;;;35.10;27.20;;;;;;5019873;28;20913;-48
2023/06/29 11:06:54;;;;;;;4.90;3.10;;;35.40;27.00;;;;;;5018643;28;20535;-49
2023/06/29 11:09:20;;;;;;;3.50;2.90;;;35.60;26.90;;;;;;5016371;28;20239;-48
2023/06/29 11:11:47;;;;;;;3.83;3.10;;;35.90;25.90;;;;;;5025668;28;20197;-48
2023/06/29 11:14:14;;;;;;;4.43;4.03;;;35.80;25.40;;;;;;5022907;28;20293;-49
2023/06/29 11:16:40;;;;;;;4.10;3.07;;;35.90;25.30;;;;;;5019437;28;20539;-50
2023/06/29 11:19:06;;;;;;;3.33;3.03;;;35.90;25.40;;;;;;5021551;28;20674;-48
2023/06/29 11:21:32;;;;;;;3.07;2.83;;;35.90;25.20;;;;;;5023545;28;20254;-50
2023/06/29 11:23:58;;;;;;;2.50;2.30;;;36.00;25.40;;;;;;5027519;28;20826;-48
2023/06/29 11:26:24;;;;;;;3.07;2.80;;;35.80;25.70;;;;;;5025473;28;20191;-49
2023/06/29 11:28:52;;;;;;;4.70;3.20;;;36.00;25.40;;;;;;5023492;28;20252;-50
2023/06/29 11:31:20;;;;;;;2.90;2.70;;;36.40;25.20;;;;;;5023342;28;20520;-48
2023/06/29 11:33:49;;;;;;;3.40;3.10;;;36.50;25.20;;;;;;5022117;28;20860;-49
2023/06/29 11:36:25;;;;;;;5.00;2.83;;;36.30;25.00;;;;;;5018499;28;20890;-59
2023/06/29 11:39:07;;;;;;;3.40;3.10;;;36.40;24.70;;;;;;5030359;28;20427;-49
2023/06/29 11:41:34;;;;;;;5.63;3.00;;;36.50;24.90;;;;;;5025923;28;20505;-52
2023/06/29 11:44:00;;;;;;;12.03;4.17;;;36.70;24.90;;;;;;5028562;28;20526;-52
2023/06/29 11:46:27;;;;;;;5.67;5.17;;;36.70;24.90;;;;;;5023562;28;20582;-50
2023/06/29 11:48:56;;;;;;;4.77;4.40;;;36.20;25.00;;;;;;5030171;28;20435;-53
2023/06/29 11:51:26;;;;;;;7.63;3.60;;;36.00;24.90;;;;;;5028045;28;20436;-53
2023/06/29 11:53:58;;;;;;;4.70;4.20;;;36.20;25.30;;;;;;5026313;28;20451;-52
2023/06/29 11:56:33;;;;;;;5.63;4.70;;;36.50;25.20;;;;;;5026990;28;20443;-53
2023/06/29 11:59:07;;;;;;;8.97;5.20;;;36.40;25.10;;;;;;5025655;28;21040;-53
2023/06/29 12:01:34;;;;;;;7.90;5.53;;;36.20;25.30;;;;;;5024348;28;20923;-54
2023/06/29 12:04:02;;;;;;;7.10;5.30;;;36.30;25.00;;;;;;5026332;28;20451;-54
2023/06/29 12:06:28;;;;;;;5.97;5.47;;;36.60;24.70;;;;;;5020913;28;20462;-54
2023/06/29 12:08:53;;;;;;;6.60;6.00;;;36.70;25.50;;;;;;5028242;28;20448;-53
2023/06/29 12:11:19;;;;;;;6.63;5.87;;;37.00;24.40;;;;;;5029194;28;20223;-53
2023/06/29 12:13:46;;;;;;;23.70;7.93;;;37.10;24.60;;;;;;5021424;28;20193;-52
2023/06/29 12:16:11;;;;;;;22.07;8.00;;;37.20;24.10;;;;;;5021246;28;20694;-52
2023/06/29 12:18:38;;;;;;;15.33;5.83;;;37.60;24.30;;;;;;5019875;28;20439;-54
2023/06/29 12:21:04;;;;;;;11.47;5.90;;;37.60;23.90;;;;;;5014710;28;20825;-52
2023/06/29 12:23:29;;;;;;;5.33;4.83;;;37.70;23.90;;;;;;5016797;28;20489;-49
2023/06/29 12:25:55;;;;;;;6.83;5.23;;;37.60;24.00;;;;;;5023910;28;20684;-51
2023/06/29 12:28:21;;;;;;;5.10;4.60;;;37.40;24.00;;;;;;5015442;28;20201;-53
2023/06/29 12:30:47;;;;;;;9.10;4.83;;;37.30;24.10;;;;;;5012882;28;20556;-52
2023/06/29 12:33:13;;;;;;;9.70;4.60;;;37.30;24.20;;;;;;5019929;28;20440;-52
2023/06/29 12:35:39;;;;;;;4.60;4.10;;;37.10;24.60;;;;;;5017976;28;22647;-51
2023/06/29 12:38:05;;;;;;;5.10;4.60;;;36.90;24.80;;;;;;5017473;28;20305;-49
2023/06/29 12:40:31;;;;;;;5.23;4.33;;;36.80;24.80;;;;;;5017179;28;20224;-53
2023/06/29 12:42:57;;;;;;;6.07;4.77;;;36.80;24.80;;;;;;5026929;28;20550;-50